sensor_id;sensor_type;location;lat;lon;timestamp;temperature;humidity
9820;DHT22;4949;48.482;9.206;2023-08-24T00:03:44;23.10;70.70
9820;DHT22;4949;48.482;9.206;2023-08-24T00:08:48;23.10;70.80
9820;DHT22;4949;48.482;9.206;2023-08-24T00:13:51;23.00;71.10
9820;DHT22;4949;48.482;9.206;2023-08-24T00:18:57;23.00;70.90
9820;DHT22;4949;48.482;9.206;2023-08-24T00:24:00;22.90;71.50
9820;DHT22;4949;48.482;9.206;2023-08-24T00:29:01;22.70;71.60
9820;DHT22;4949;48.482;9.206;2023-08-24T00:34:02;22.90;71.60
9820;DHT22;4949;48.482;9.206;2023-08-24T00:39:03;22.90;71.40
9820;DHT22;4949;48.482;9.206;2023-08-24T00:44:03;23.00;70.90
9820;DHT22;4949;48.482;9.206;2023-08-24T00:49:08;23.10;70.50
9820;DHT22;4949;48.482;9.206;2023-08-24T00:54:11;22.80;71.20
9820;DHT22;4949;48.482;9.206;2023-08-24T00:59:14;22.60;72.00
9820;DHT22;4949;48.482;9.206;2023-08-24T01:04:18;22.50;72.30
9820;DHT22;4949;48.482;9.206;2023-08-24T01:09:22;22.40;73.30
9820;DHT22;4949;48.482;9.206;2023-08-24T01:15:07;22.30;73.60
9820;DHT22;4949;48.482;9.206;2023-08-24T01:20:11;22.20;74.60
9820;DHT22;4949;48.482;9.206;2023-08-24T01:25:29;22.00;75.40
9820;DHT22;4949;48.482;9.206;2023-08-24T01:30:35;21.80;76.00
9820;DHT22;4949;48.482;9.206;2023-08-24T01:35:36;21.80;76.10
9820;DHT22;4949;48.482;9.206;2023-08-24T01:45:54;21.70;76.90
9820;DHT22;4949;48.482;9.206;2023-08-24T01:51:00;21.60;77.30
9820;DHT22;4949;48.482;9.206;2023-08-24T01:56:07;21.60;77.30
9820;DHT22;4949;48.482;9.206;2023-08-24T02:01:11;21.50;77.60
9820;DHT22;4949;48.482;9.206;2023-08-24T02:06:14;21.40;77.90
9820;DHT22;4949;48.482;9.206;2023-08-24T02:11:20;21.30;78.30
9820;DHT22;4949;48.482;9.206;2023-08-24T02:16:20;21.30;78.30
9820;DHT22;4949;48.482;9.206;2023-08-24T02:21:23;21.30;78.70
9820;DHT22;4949;48.482;9.206;2023-08-24T02:26:24;21.20;78.60
9820;DHT22;4949;48.482;9.206;2023-08-24T02:31:25;21.20;79.10
9820;DHT22;4949;48.482;9.206;2023-08-24T02:36:25;21.10;78.90
9820;DHT22;4949;48.482;9.206;2023-08-24T02:41:27;21.00;79.10
9820;DHT22;4949;48.482;9.206;2023-08-24T02:46:30;21.00;79.30
9820;DHT22;4949;48.482;9.206;2023-08-24T02:51:33;21.10;78.80
9820;DHT22;4949;48.482;9.206;2023-08-24T02:56:34;21.10;78.80
9820;DHT22;4949;48.482;9.206;2023-08-24T03:01:34;21.10;79.00
9820;DHT22;4949;48.482;9.206;2023-08-24T03:06:38;21.10;79.10
9820;DHT22;4949;48.482;9.206;2023-08-24T03:11:39;21.20;79.20
9820;DHT22;4949;48.482;9.206;2023-08-24T03:16:40;21.00;79.90
9820;DHT22;4949;48.482;9.206;2023-08-24T03:21:44;21.00;80.10
9820;DHT22;4949;48.482;9.206;2023-08-24T03:26:45;20.90;80.50
9820;DHT22;4949;48.482;9.206;2023-08-24T03:31:45;20.80;81.20
9820;DHT22;4949;48.482;9.206;2023-08-24T03:36:46;20.80;81.50
9820;DHT22;4949;48.482;9.206;2023-08-24T03:41:49;20.70;81.70
9820;DHT22;4949;48.482;9.206;2023-08-24T03:46:52;20.70;81.70
9820;DHT22;4949;48.482;9.206;2023-08-24T03:51:55;20.60;82.10
9820;DHT22;4949;48.482;9.206;2023-08-24T03:56:58;20.70;81.80
9820;DHT22;4949;48.482;9.206;2023-08-24T04:02:00;20.70;82.10
9820;DHT22;4949;48.482;9.206;2023-08-24T04:07:03;20.80;81.70
9820;DHT22;4949;48.482;9.206;2023-08-24T04:12:04;21.00;80.60
9820;DHT22;4949;48.482;9.206;2023-08-24T04:17:07;20.80;81.40
9820;DHT22;4949;48.482;9.206;2023-08-24T04:22:08;20.70;81.70
9820;DHT22;4949;48.482;9.206;2023-08-24T04:27:09;20.70;82.20
9820;DHT22;4949;48.482;9.206;2023-08-24T04:32:09;20.60;82.20
9820;DHT22;4949;48.482;9.206;2023-08-24T04:37:13;20.60;82.40
9820;DHT22;4949;48.482;9.206;2023-08-24T04:42:13;20.70;82.20
9820;DHT22;4949;48.482;9.206;2023-08-24T04:47:14;20.80;81.80
9820;DHT22;4949;48.482;9.206;2023-08-24T04:52:15;20.80;82.00
9820;DHT22;4949;48.482;9.206;2023-08-24T04:57:16;20.70;82.60
9820;DHT22;4949;48.482;9.206;2023-08-24T05:02:19;20.70;82.70
9820;DHT22;4949;48.482;9.206;2023-08-24T05:07:20;20.90;82.10
9820;DHT22;4949;48.482;9.206;2023-08-24T05:12:21;20.90;81.20
9820;DHT22;4949;48.482;9.206;2023-08-24T05:17:21;20.90;82.20
9820;DHT22;4949;48.482;9.206;2023-08-24T05:22:25;20.80;82.60
9820;DHT22;4949;48.482;9.206;2023-08-24T05:27:25;20.70;83.50
9820;DHT22;4949;48.482;9.206;2023-08-24T05:32:26;20.50;83.80
9820;DHT22;4949;48.482;9.206;2023-08-24T05:37:27;20.50;83.80
9820;DHT22;4949;48.482;9.206;2023-08-24T05:42:28;20.50;84.10
9820;DHT22;4949;48.482;9.206;2023-08-24T05:47:29;20.30;84.50
9820;DHT22;4949;48.482;9.206;2023-08-24T05:52:30;20.30;85.50
9820;DHT22;4949;48.482;9.206;2023-08-24T05:57:31;20.40;84.90
9820;DHT22;4949;48.482;9.206;2023-08-24T06:02:34;20.50;85.20
9820;DHT22;4949;48.482;9.206;2023-08-24T06:07:35;20.50;84.50
9820;DHT22;4949;48.482;9.206;2023-08-24T06:12:36;20.70;84.50
9820;DHT22;4949;48.482;9.206;2023-08-24T06:17:37;20.70;84.00
9820;DHT22;4949;48.482;9.206;2023-08-24T06:22:38;20.70;84.00
9820;DHT22;4949;48.482;9.206;2023-08-24T06:27:40;20.80;84.30
9820;DHT22;4949;48.482;9.206;2023-08-24T06:32:43;20.80;84.10
9820;DHT22;4949;48.482;9.206;2023-08-24T06:37:44;20.90;84.10
9820;DHT22;4949;48.482;9.206;2023-08-24T06:42:45;20.90;84.20
9820;DHT22;4949;48.482;9.206;2023-08-24T06:47:46;21.10;83.70
9820;DHT22;4949;48.482;9.206;2023-08-24T06:52:47;21.30;83.10
9820;DHT22;4949;48.482;9.206;2023-08-24T06:57:50;21.40;82.90
9820;DHT22;4949;48.482;9.206;2023-08-24T07:02:51;21.50;82.80
9820;DHT22;4949;48.482;9.206;2023-08-24T07:07:52;21.50;83.40
9820;DHT22;4949;48.482;9.206;2023-08-24T07:12:54;21.50;83.50
9820;DHT22;4949;48.482;9.206;2023-08-24T07:17:54;21.40;83.80
9820;DHT22;4949;48.482;9.206;2023-08-24T07:22:55;21.40;84.30
9820;DHT22;4949;48.482;9.206;2023-08-24T07:27:57;21.50;84.10
9820;DHT22;4949;48.482;9.206;2023-08-24T07:33:03;21.60;83.50
9820;DHT22;4949;48.482;9.206;2023-08-24T07:38:04;21.70;82.40
9820;DHT22;4949;48.482;9.206;2023-08-24T07:43:08;21.70;81.90
9820;DHT22;4949;48.482;9.206;2023-08-24T07:48:11;21.80;81.70
9820;DHT22;4949;48.482;9.206;2023-08-24T07:53:13;21.80;81.50
9820;DHT22;4949;48.482;9.206;2023-08-24T07:58:17;21.90;81.50
9820;DHT22;4949;48.482;9.206;2023-08-24T08:03:19;22.00;80.60
9820;DHT22;4949;48.482;9.206;2023-08-24T08:08:22;22.00;80.60
9820;DHT22;4949;48.482;9.206;2023-08-24T08:13:23;22.20;80.30
9820;DHT22;4949;48.482;9.206;2023-08-24T08:18:24;22.30;79.50
9820;DHT22;4949;48.482;9.206;2023-08-24T08:23:24;22.50;79.10
9820;DHT22;4949;48.482;9.206;2023-08-24T08:28:25;22.70;78.50
9820;DHT22;4949;48.482;9.206;2023-08-24T08:33:29;22.90;77.60
9820;DHT22;4949;48.482;9.206;2023-08-24T08:38:32;23.00;77.10
9820;DHT22;4949;48.482;9.206;2023-08-24T08:43:33;23.30;76.60
9820;DHT22;4949;48.482;9.206;2023-08-24T08:48:37;23.50;76.20
9820;DHT22;4949;48.482;9.206;2023-08-24T08:53:38;23.60;75.40
9820;DHT22;4949;48.482;9.206;2023-08-24T08:58:39;23.80;74.90
9820;DHT22;4949;48.482;9.206;2023-08-24T09:03:44;23.90;74.00
9820;DHT22;4949;48.482;9.206;2023-08-24T09:08:45;24.10;74.60
9820;DHT22;4949;48.482;9.206;2023-08-24T09:13:47;24.20;73.60
9820;DHT22;4949;48.482;9.206;2023-08-24T09:18:48;24.30;73.00
9820;DHT22;4949;48.482;9.206;2023-08-24T09:23:55;24.50;72.80
9820;DHT22;4949;48.482;9.206;2023-08-24T09:28:57;24.60;72.20
9820;DHT22;4949;48.482;9.206;2023-08-24T09:34:03;24.80;71.80
9820;DHT22;4949;48.482;9.206;2023-08-24T09:39:06;25.00;71.80
9820;DHT22;4949;48.482;9.206;2023-08-24T09:44:07;25.20;71.10
9820;DHT22;4949;48.482;9.206;2023-08-24T09:49:10;25.40;70.60
9820;DHT22;4949;48.482;9.206;2023-08-24T09:54:11;25.50;70.30
9820;DHT22;4949;48.482;9.206;2023-08-24T09:59:24;25.70;71.30
9820;DHT22;4949;48.482;9.206;2023-08-24T10:04:34;25.90;70.40
9820;DHT22;4949;48.482;9.206;2023-08-24T10:09:45;26.10;70.00
9820;DHT22;4949;48.482;9.206;2023-08-24T10:15:02;26.30;69.20
9820;DHT22;4949;48.482;9.206;2023-08-24T10:20:10;26.60;68.40
9820;DHT22;4949;48.482;9.206;2023-08-24T10:25:13;26.80;68.50
9820;DHT22;4949;48.482;9.206;2023-08-24T10:30:16;27.00;67.70
9820;DHT22;4949;48.482;9.206;2023-08-24T10:35:20;27.20;68.20
9820;DHT22;4949;48.482;9.206;2023-08-24T10:40:35;27.50;66.80
9820;DHT22;4949;48.482;9.206;2023-08-24T10:45:56;27.80;66.50
9820;DHT22;4949;48.482;9.206;2023-08-24T10:51:24;28.10;65.10
9820;DHT22;4949;48.482;9.206;2023-08-24T10:56:53;28.40;65.50
9820;DHT22;4949;48.482;9.206;2023-08-24T11:01:57;28.70;63.20
9820;DHT22;4949;48.482;9.206;2023-08-24T11:06:59;28.90;63.40
9820;DHT22;4949;48.482;9.206;2023-08-24T11:12:03;29.20;62.40
9820;DHT22;4949;48.482;9.206;2023-08-24T11:17:18;29.40;61.20
9820;DHT22;4949;48.482;9.206;2023-08-24T11:22:20;29.60;61.60
9820;DHT22;4949;48.482;9.206;2023-08-24T11:27:25;29.70;60.30
9820;DHT22;4949;48.482;9.206;2023-08-24T11:32:27;30.00;59.80
9820;DHT22;4949;48.482;9.206;2023-08-24T11:37:28;30.30;59.60
9820;DHT22;4949;48.482;9.206;2023-08-24T11:42:37;30.60;57.80
9820;DHT22;4949;48.482;9.206;2023-08-24T11:47:38;30.90;57.80
9820;DHT22;4949;48.482;9.206;2023-08-24T11:52:40;31.30;56.30
9820;DHT22;4949;48.482;9.206;2023-08-24T11:57:43;31.60;55.70
9820;DHT22;4949;48.482;9.206;2023-08-24T12:02:44;32.00;54.10
9820;DHT22;4949;48.482;9.206;2023-08-24T12:07:46;32.30;53.60
9820;DHT22;4949;48.482;9.206;2023-08-24T12:12:47;32.60;51.90
9820;DHT22;4949;48.482;9.206;2023-08-24T12:17:48;33.10;47.60
9820;DHT22;4949;48.482;9.206;2023-08-24T12:22:55;33.40;47.10
9820;DHT22;4949;48.482;9.206;2023-08-24T12:28:08;33.70;46.50
9820;DHT22;4949;48.482;9.206;2023-08-24T12:33:24;34.00;46.40
9820;DHT22;4949;48.482;9.206;2023-08-24T12:38:26;34.40;45.00
9820;DHT22;4949;48.482;9.206;2023-08-24T12:43:27;34.50;43.80
9820;DHT22;4949;48.482;9.206;2023-08-24T12:48:30;34.50;42.90
9820;DHT22;4949;48.482;9.206;2023-08-24T12:53:33;34.60;43.80
9820;DHT22;4949;48.482;9.206;2023-08-24T12:58:37;34.90;42.80
9820;DHT22;4949;48.482;9.206;2023-08-24T13:03:38;35.10;42.60
9820;DHT22;4949;48.482;9.206;2023-08-24T13:08:39;35.40;42.50
9820;DHT22;4949;48.482;9.206;2023-08-24T13:13:43;35.60;41.40
9820;DHT22;4949;48.482;9.206;2023-08-24T13:18:45;35.80;40.90
9820;DHT22;4949;48.482;9.206;2023-08-24T13:23:46;36.00;40.40
9820;DHT22;4949;48.482;9.206;2023-08-24T13:28:50;36.00;40.00
9820;DHT22;4949;48.482;9.206;2023-08-24T13:33:54;35.80;40.60
9820;DHT22;4949;48.482;9.206;2023-08-24T13:38:57;35.50;40.60
9820;DHT22;4949;48.482;9.206;2023-08-24T13:43:57;35.30;40.20
9820;DHT22;4949;48.482;9.206;2023-08-24T13:49:00;35.20;45.70
9820;DHT22;4949;48.482;9.206;2023-08-24T13:54:02;35.00;45.40
9820;DHT22;4949;48.482;9.206;2023-08-24T13:59:05;35.00;44.90
9820;DHT22;4949;48.482;9.206;2023-08-24T14:04:06;35.20;45.10
9820;DHT22;4949;48.482;9.206;2023-08-24T14:09:09;35.40;43.20
9820;DHT22;4949;48.482;9.206;2023-08-24T14:14:10;35.40;42.40
9820;DHT22;4949;48.482;9.206;2023-08-24T14:19:11;35.40;42.10
9820;DHT22;4949;48.482;9.206;2023-08-24T14:24:12;35.40;41.50
9820;DHT22;4949;48.482;9.206;2023-08-24T14:29:13;35.50;42.50
9820;DHT22;4949;48.482;9.206;2023-08-24T14:34:14;35.60;43.40
9820;DHT22;4949;48.482;9.206;2023-08-24T14:39:19;35.70;43.20
9820;DHT22;4949;48.482;9.206;2023-08-24T14:44:20;35.70;42.20
9820;DHT22;4949;48.482;9.206;2023-08-24T14:49:21;35.60;41.00
9820;DHT22;4949;48.482;9.206;2023-08-24T14:54:22;35.50;41.30
9820;DHT22;4949;48.482;9.206;2023-08-24T14:59:23;35.50;42.10
9820;DHT22;4949;48.482;9.206;2023-08-24T15:04:24;35.40;42.00
9820;DHT22;4949;48.482;9.206;2023-08-24T15:09:25;35.40;42.70
9820;DHT22;4949;48.482;9.206;2023-08-24T15:14:30;35.40;43.40
9820;DHT22;4949;48.482;9.206;2023-08-24T15:19:34;35.50;43.70
9820;DHT22;4949;48.482;9.206;2023-08-24T15:24:37;35.30;44.00
9820;DHT22;4949;48.482;9.206;2023-08-24T15:29:40;34.90;44.30
9820;DHT22;4949;48.482;9.206;2023-08-24T15:34:41;34.50;45.10
9820;DHT22;4949;48.482;9.206;2023-08-24T15:39:44;33.90;47.30
9820;DHT22;4949;48.482;9.206;2023-08-24T15:44:45;33.70;48.50
9820;DHT22;4949;48.482;9.206;2023-08-24T15:49:45;33.30;50.30
9820;DHT22;4949;48.482;9.206;2023-08-24T15:54:46;33.30;51.20
9820;DHT22;4949;48.482;9.206;2023-08-24T15:59:48;32.90;52.80
9820;DHT22;4949;48.482;9.206;2023-08-24T16:04:51;32.80;53.50
9820;DHT22;4949;48.482;9.206;2023-08-24T16:09:55;32.70;53.90
9820;DHT22;4949;48.482;9.206;2023-08-24T16:14:58;32.60;54.20
9820;DHT22;4949;48.482;9.206;2023-08-24T16:20:03;32.60;54.30
9820;DHT22;4949;48.482;9.206;2023-08-24T16:25:09;32.60;54.20
9820;DHT22;4949;48.482;9.206;2023-08-24T16:30:10;32.40;54.10
9820;DHT22;4949;48.482;9.206;2023-08-24T16:35:11;32.30;53.70
9820;DHT22;4949;48.482;9.206;2023-08-24T16:40:12;32.10;53.80
9820;DHT22;4949;48.482;9.206;2023-08-24T16:45:13;31.70;54.60
9820;DHT22;4949;48.482;9.206;2023-08-24T16:50:14;31.70;55.20
9820;DHT22;4949;48.482;9.206;2023-08-24T16:55:15;31.50;55.80
9820;DHT22;4949;48.482;9.206;2023-08-24T17:00:16;31.40;56.20
9820;DHT22;4949;48.482;9.206;2023-08-24T17:05:17;31.20;56.30
9820;DHT22;4949;48.482;9.206;2023-08-24T17:10:22;31.00;57.00
9820;DHT22;4949;48.482;9.206;2023-08-24T17:15:25;30.80;57.00
9820;DHT22;4949;48.482;9.206;2023-08-24T17:20:28;30.70;57.70
9820;DHT22;4949;48.482;9.206;2023-08-24T17:25:30;30.60;57.40
9820;DHT22;4949;48.482;9.206;2023-08-24T17:30:33;30.60;57.90
9820;DHT22;4949;48.482;9.206;2023-08-24T17:35:36;30.30;58.70
9820;DHT22;4949;48.482;9.206;2023-08-24T17:40:39;30.20;59.30
9820;DHT22;4949;48.482;9.206;2023-08-24T17:45:40;30.10;59.40
9820;DHT22;4949;48.482;9.206;2023-08-24T17:50:40;30.00;59.60
9820;DHT22;4949;48.482;9.206;2023-08-24T17:55:41;30.00;59.80
9820;DHT22;4949;48.482;9.206;2023-08-24T18:00:45;29.90;60.30
9820;DHT22;4949;48.482;9.206;2023-08-24T18:05:46;29.90;60.30
9820;DHT22;4949;48.482;9.206;2023-08-24T18:10:49;29.90;60.30
9820;DHT22;4949;48.482;9.206;2023-08-24T18:15:50;29.60;62.10
9820;DHT22;4949;48.482;9.206;2023-08-24T18:20:51;29.30;63.40
9820;DHT22;4949;48.482;9.206;2023-08-24T18:25:51;29.20;63.70
9820;DHT22;4949;48.482;9.206;2023-08-24T18:30:59;29.00;64.40
9820;DHT22;4949;48.482;9.206;2023-08-24T18:36:00;28.80;65.60
9820;DHT22;4949;48.482;9.206;2023-08-24T18:41:01;28.60;66.30
9820;DHT22;4949;48.482;9.206;2023-08-24T18:46:06;28.70;65.40
9820;DHT22;4949;48.482;9.206;2023-08-24T18:51:07;28.40;66.70
9820;DHT22;4949;48.482;9.206;2023-08-24T18:56:11;28.20;67.60
9820;DHT22;4949;48.482;9.206;2023-08-24T19:01:14;28.00;68.90
9820;DHT22;4949;48.482;9.206;2023-08-24T19:06:15;27.60;70.10
9820;DHT22;4949;48.482;9.206;2023-08-24T19:11:15;27.20;70.40
9820;DHT22;4949;48.482;9.206;2023-08-24T19:16:18;27.10;75.20
9820;DHT22;4949;48.482;9.206;2023-08-24T19:21:19;24.00;83.00
9820;DHT22;4949;48.482;9.206;2023-08-24T19:26:26;21.40;96.90
9820;DHT22;4949;48.482;9.206;2023-08-24T19:31:26;21.50;98.20
9820;DHT22;4949;48.482;9.206;2023-08-24T19:36:27;22.00;98.20
9820;DHT22;4949;48.482;9.206;2023-08-24T19:41:28;22.20;95.40
9820;DHT22;4949;48.482;9.206;2023-08-24T19:46:31;22.40;97.10
9820;DHT22;4949;48.482;9.206;2023-08-24T19:51:34;22.40;97.20
9820;DHT22;4949;48.482;9.206;2023-08-24T19:56:37;22.60;95.40
9820;DHT22;4949;48.482;9.206;2023-08-24T20:01:39;22.70;94.40
9820;DHT22;4949;48.482;9.206;2023-08-24T20:06:39;22.70;93.40
9820;DHT22;4949;48.482;9.206;2023-08-24T20:11:43;22.60;93.30
9820;DHT22;4949;48.482;9.206;2023-08-24T20:16:43;22.20;92.90
9820;DHT22;4949;48.482;9.206;2023-08-24T20:21:44;21.70;93.20
9820;DHT22;4949;48.482;9.206;2023-08-24T20:26:45;21.60;92.90
9820;DHT22;4949;48.482;9.206;2023-08-24T20:31:48;21.60;93.00
9820;DHT22;4949;48.482;9.206;2023-08-24T20:36:53;21.60;92.90
9820;DHT22;4949;48.482;9.206;2023-08-24T20:42:14;21.70;93.40
9820;DHT22;4949;48.482;9.206;2023-08-24T20:47:23;21.80;93.30
9820;DHT22;4949;48.482;9.206;2023-08-24T20:52:24;22.10;91.60
9820;DHT22;4949;48.482;9.206;2023-08-24T20:57:27;22.00;91.40
9820;DHT22;4949;48.482;9.206;2023-08-24T21:02:28;22.10;91.20
9820;DHT22;4949;48.482;9.206;2023-08-24T21:07:33;22.20;91.30
9820;DHT22;4949;48.482;9.206;2023-08-24T21:12:34;22.10;90.20
9820;DHT22;4949;48.482;9.206;2023-08-24T21:17:38;22.00;90.30
9820;DHT22;4949;48.482;9.206;2023-08-24T21:22:41;21.90;91.50
9820;DHT22;4949;48.482;9.206;2023-08-24T21:27:44;21.80;91.30
9820;DHT22;4949;48.482;9.206;2023-08-24T21:32:47;21.70;91.40
9820;DHT22;4949;48.482;9.206;2023-08-24T21:37:48;21.60;91.40
9820;DHT22;4949;48.482;9.206;2023-08-24T21:42:48;21.60;91.20
9820;DHT22;4949;48.482;9.206;2023-08-24T21:47:52;21.60;91.20
9820;DHT22;4949;48.482;9.206;2023-08-24T21:52:52;21.60;91.20
9820;DHT22;4949;48.482;9.206;2023-08-24T21:57:54;21.50;91.30
9820;DHT22;4949;48.482;9.206;2023-08-24T22:02:56;21.60;91.20
9820;DHT22;4949;48.482;9.206;2023-08-24T22:07:59;21.70;90.10
9820;DHT22;4949;48.482;9.206;2023-08-24T22:13:00;21.80;90.00
9820;DHT22;4949;48.482;9.206;2023-08-24T22:18:00;21.90;90.00
9820;DHT22;4949;48.482;9.206;2023-08-24T22:23:01;22.00;90.50
9820;DHT22;4949;48.482;9.206;2023-08-24T22:28:02;22.00;90.20
9820;DHT22;4949;48.482;9.206;2023-08-24T22:33:03;22.00;90.40
9820;DHT22;4949;48.482;9.206;2023-08-24T22:38:07;22.00;90.10
9820;DHT22;4949;48.482;9.206;2023-08-24T22:43:08;21.90;90.00
9820;DHT22;4949;48.482;9.206;2023-08-24T22:48:11;22.00;90.00
9820;DHT22;4949;48.482;9.206;2023-08-24T22:53:14;22.00;89.50
9820;DHT22;4949;48.482;9.206;2023-08-24T22:58:17;22.00;89.50
9820;DHT22;4949;48.482;9.206;2023-08-24T23:03:18;22.00;89.20
9820;DHT22;4949;48.482;9.206;2023-08-24T23:08:18;22.00;87.90
9820;DHT22;4949;48.482;9.206;2023-08-24T23:13:21;22.10;88.90
9820;DHT22;4949;48.482;9.206;2023-08-24T23:18:22;22.00;88.60
9820;DHT22;4949;48.482;9.206;2023-08-24T23:23:26;22.00;89.60
9820;DHT22;4949;48.482;9.206;2023-08-24T23:28:27;22.00;90.60
9820;DHT22;4949;48.482;9.206;2023-08-24T23:33:30;22.00;88.80
9820;DHT22;4949;48.482;9.206;2023-08-24T23:38:31;22.10;88.50
9820;DHT22;4949;48.482;9.206;2023-08-24T23:43:34;22.10;88.70
9820;DHT22;4949;48.482;9.206;2023-08-24T23:48:39;22.10;88.50
9820;DHT22;4949;48.482;9.206;2023-08-24T23:53:45;22.10;88.70
9820;DHT22;4949;48.482;9.206;2023-08-24T23:58:46;22.10;87.50
